Time;durP1;ratioP1;P1;durP2;ratioP2;P2;SDS_P1;SDS_P2;PMS_P1;PMS_P2;Temp;Humidity;BMP_temperature;BMP_pressure;BME280_temperature;BME280_humidity;BME280_pressure;Samples;Min_cycle;Max_cycle;Signal;HPM_P1;HPM_P2
2024/03/24 00:00:05;;;;;;;0.43;0.43;;;;;;;;;;5012953;28;20235;-75
2024/03/24 00:02:31;;;;;;;0.40;0.40;;;;;;;;;;5029781;28;20647;-74
2024/03/24 00:04:56;;;;;;;0.97;0.63;;;;;;;;;;5030000;28;20277;-75
2024/03/24 00:07:22;;;;;;;0.40;0.40;;;;;;;;;;5028873;28;20229;-74
2024/03/24 00:09:47;;;;;;;0.30;0.30;;;;;;;;;;5029394;28;20735;-75
2024/03/24 00:12:13;;;;;;;0.63;0.63;;;;;;;;;;5013243;28;20220;-74
2024/03/24 00:14:38;;;;;;;1.13;0.60;;;;;;;;;;5011684;28;20255;-74
2024/03/24 00:17:04;;;;;;;0.20;0.20;;;;;;;;;;5009420;28;20247;-74
2024/03/24 00:19:29;;;;;;;11.63;1.07;;;;;;;;;;5029070;28;20734;-74
2024/03/24 00:21:55;;;;;;;0.30;0.30;;;;;;;;;;5012347;28;20228;-74
2024/03/24 00:24:20;;;;;;;0.63;0.50;;;;;;;;;;5029388;28;20330;-74
2024/03/24 00:26:46;;;;;;;0.30;0.30;;;;;;;;;;5028271;28;20721;-75
2024/03/24 00:29:11;;;;;;;0.37;0.37;;;;;;;;;;5028421;28;20224;-75
2024/03/24 00:31:37;;;;;;;0.30;0.30;;;;;;;;;;5026610;28;20227;-74
2024/03/24 00:34:02;;;;;;;0.30;0.30;;;;;;;;;;5011598;28;20227;-74
2024/03/24 00:36:28;;;;;;;0.70;0.70;;;;;;;;;;5025026;28;20278;-75
2024/03/24 00:38:54;;;;;;;0.20;0.20;;;;;;;;;;5028318;28;20614;-75
2024/03/24 00:41:19;;;;;;;0.30;0.30;;;;;;;;;;5029115;28;20314;-75
2024/03/24 00:43:46;;;;;;;0.80;0.80;;;;;;;;;;5030424;28;20219;-74
2024/03/24 00:46:11;;;;;;;0.50;0.50;;;;;;;;;;5024937;28;20220;-75
2024/03/24 00:48:37;;;;;;;0.30;0.30;;;;;;;;;;5008594;28;20228;-75
2024/03/24 00:51:03;;;;;;;0.30;0.30;;;;;;;;;;5009317;28;20231;-74
2024/03/24 00:53:28;;;;;;;0.30;0.30;;;;;;;;;;5001585;28;20601;-75
2024/03/24 00:55:54;;;;;;;0.30;0.30;;;;;;;;;;5027011;28;20222;-74
2024/03/24 00:58:20;;;;;;;0.30;0.30;;;;;;;;;;5026191;28;20224;-75
2024/03/24 01:00:46;;;;;;;0.30;0.30;;;;;;;;;;5010793;28;20714;-74
2024/03/24 01:03:11;;;;;;;0.20;0.20;;;;;;;;;;5040339;28;20712;-75
2024/03/24 01:05:37;;;;;;;0.27;0.27;;;;;;;;;;5030825;28;20235;-75
2024/03/24 01:08:03;;;;;;;0.30;0.30;;;;;;;;;;5024630;28;20217;-75
2024/03/24 01:10:29;;;;;;;0.60;0.60;;;;;;;;;;5015203;28;20233;-75
2024/03/24 01:12:55;;;;;;;0.30;0.30;;;;;;;;;;5018971;28;20595;-75
2024/03/24 01:15:20;;;;;;;0.30;0.30;;;;;;;;;;5025661;28;20227;-75
2024/03/24 01:17:46;;;;;;;0.20;0.20;;;;;;;;;;5026013;28;20223;-75
2024/03/24 01:20:13;;;;;;;0.30;0.30;;;;;;;;;;5017168;28;20235;-74
2024/03/24 01:22:39;;;;;;;0.30;0.30;;;;;;;;;;5003989;28;20213;-75
2024/03/24 01:25:05;;;;;;;0.40;0.40;;;;;;;;;;4995098;28;20599;-75
2024/03/24 01:27:31;;;;;;;0.27;0.27;;;;;;;;;;5021749;28;20232;-75
2024/03/24 01:29:56;;;;;;;0.20;0.20;;;;;;;;;;5026825;28;20228;-74
2024/03/24 01:32:22;;;;;;;0.40;0.40;;;;;;;;;;5027737;28;20216;-75
2024/03/24 01:34:47;;;;;;;0.30;0.30;;;;;;;;;;5028833;28;20248;-75
2024/03/24 01:37:13;;;;;;;0.30;0.30;;;;;;;;;;5026342;28;20301;-78
2024/03/24 01:39:42;;;;;;;0.20;0.20;;;;;;;;;;5011582;28;20303;-75
2024/03/24 01:42:08;;;;;;;0.30;0.30;;;;;;;;;;5004795;28;20235;-75
2024/03/24 01:44:33;;;;;;;0.30;0.30;;;;;;;;;;5009287;28;20220;-76
2024/03/24 01:46:58;;;;;;;0.30;0.30;;;;;;;;;;5007900;28;20271;-75
2024/03/24 01:49:24;;;;;;;0.30;0.30;;;;;;;;;;5008582;28;20224;-76
2024/03/24 01:51:50;;;;;;;0.30;0.30;;;;;;;;;;5007733;28;20227;-75
2024/03/24 01:54:16;;;;;;;0.30;0.30;;;;;;;;;;5011187;28;20772;-75
2024/03/24 01:56:43;;;;;;;0.20;0.20;;;;;;;;;;5028239;28;20212;-76
2024/03/24 01:59:10;;;;;;;0.20;0.20;;;;;;;;;;5026074;28;20759;-75
2024/03/24 02:01:36;;;;;;;0.20;0.20;;;;;;;;;;5010446;28;20227;-75
2024/03/24 02:04:08;;;;;;;0.20;0.20;;;;;;;;;;5028486;28;20605;-75
2024/03/24 02:06:34;;;;;;;0.30;0.30;;;;;;;;;;5028424;28;20211;-75
2024/03/24 02:09:00;;;;;;;0.50;0.50;;;;;;;;;;5026895;28;20300;-75
2024/03/24 02:11:27;;;;;;;1.13;1.13;;;;;;;;;;5026608;28;20602;-76
2024/03/24 02:13:57;;;;;;;0.30;0.30;;;;;;;;;;5029166;28;20223;-75
2024/03/24 02:16:22;;;;;;;0.30;0.30;;;;;;;;;;5010334;28;20231;-76
2024/03/24 02:18:48;;;;;;;0.30;0.30;;;;;;;;;;5043805;28;20231;-76
2024/03/24 02:21:14;;;;;;;0.30;0.30;;;;;;;;;;5032746;28;20227;-75
2024/03/24 02:23:39;;;;;;;0.50;0.50;;;;;;;;;;5051049;28;20222;-76
2024/03/24 02:26:05;;;;;;;0.30;0.30;;;;;;;;;;5014293;28;20227;-75
2024/03/24 02:28:31;;;;;;;0.30;0.30;;;;;;;;;;5032474;28;20231;-76
2024/03/24 02:30:56;;;;;;;0.37;0.37;;;;;;;;;;5033222;28;20232;-76
2024/03/24 02:33:22;;;;;;;0.30;0.30;;;;;;;;;;5032771;28;20767;-76
2024/03/24 02:35:49;;;;;;;0.30;0.30;;;;;;;;;;5032229;28;20259;-76
2024/03/24 02:38:16;;;;;;;0.57;0.57;;;;;;;;;;5030882;28;20220;-76
2024/03/24 02:40:41;;;;;;;0.30;0.30;;;;;;;;;;5033028;28;20220;-75
2024/03/24 02:43:07;;;;;;;0.30;0.30;;;;;;;;;;5030694;28;20224;-76
2024/03/24 02:45:32;;;;;;;0.30;0.30;;;;;;;;;;5040084;28;20227;-76
2024/03/24 02:47:58;;;;;;;0.27;0.27;;;;;;;;;;5012290;28;20223;-75
2024/03/24 02:50:24;;;;;;;0.30;0.30;;;;;;;;;;5029684;28;20223;-76
2024/03/24 02:52:49;;;;;;;0.30;0.30;;;;;;;;;;5014191;28;20242;-75
2024/03/24 02:55:15;;;;;;;0.30;0.30;;;;;;;;;;5028887;28;20716;-77
2024/03/24 02:57:41;;;;;;;0.20;0.20;;;;;;;;;;5026339;28;20224;-75
2024/03/24 03:00:09;;;;;;;0.27;0.27;;;;;;;;;;5030705;28;20302;-75
2024/03/24 03:02:35;;;;;;;0.30;0.30;;;;;;;;;;5016868;28;20223;-75
2024/03/24 03:05:00;;;;;;;0.20;0.20;;;;;;;;;;5030001;28;20482;-75
2024/03/24 03:07:26;;;;;;;0.20;0.20;;;;;;;;;;5030760;28;20220;-74
2024/03/24 03:09:54;;;;;;;0.20;0.20;;;;;;;;;;5015304;28;20232;-75
2024/03/24 03:12:20;;;;;;;0.30;0.30;;;;;;;;;;5014971;28;20249;-75
2024/03/24 03:14:46;;;;;;;0.30;0.30;;;;;;;;;;5031237;28;20602;-76
2024/03/24 03:17:11;;;;;;;0.30;0.30;;;;;;;;;;5031289;28;20221;-76
2024/03/24 03:19:37;;;;;;;0.30;0.30;;;;;;;;;;5031107;28;20228;-76
2024/03/24 03:22:04;;;;;;;0.23;0.23;;;;;;;;;;5014867;28;20744;-76
2024/03/24 03:24:29;;;;;;;0.30;0.30;;;;;;;;;;5031415;28;20216;-76
2024/03/24 03:26:55;;;;;;;0.30;0.30;;;;;;;;;;5014899;28;20236;-77
2024/03/24 03:29:21;;;;;;;0.30;0.30;;;;;;;;;;5015130;28;20220;-76
2024/03/24 03:31:47;;;;;;;0.30;0.30;;;;;;;;;;5031506;28;20215;-76
2024/03/24 03:34:12;;;;;;;0.30;0.30;;;;;;;;;;5014527;28;20226;-76
2024/03/24 03:36:38;;;;;;;0.30;0.30;;;;;;;;;;5031226;28;20236;-76
2024/03/24 03:39:04;;;;;;;0.30;0.30;;;;;;;;;;5011241;28;20696;-76
2024/03/24 03:41:31;;;;;;;0.30;0.30;;;;;;;;;;5013764;28;20224;-77
2024/03/24 03:43:57;;;;;;;0.30;0.30;;;;;;;;;;5029800;28;20232;-76
2024/03/24 03:46:22;;;;;;;0.30;0.30;;;;;;;;;;5013553;28;20259;-76
2024/03/24 03:48:48;;;;;;;0.30;0.30;;;;;;;;;;5013167;28;20360;-77
2024/03/24 03:51:27;;;;;;;0.30;0.30;;;;;;;;;;5012568;28;20232;-76
2024/03/24 03:53:55;;;;;;;0.20;0.20;;;;;;;;;;5035778;28;20227;-76
2024/03/24 03:56:20;;;;;;;0.30;0.30;;;;;;;;;;5027971;28;20231;-76
2024/03/24 03:58:46;;;;;;;0.30;0.30;;;;;;;;;;5030412;28;20240;-76
2024/03/24 04:01:11;;;;;;;0.30;0.30;;;;;;;;;;5018301;28;20709;-75
2024/03/24 04:03:37;;;;;;;0.30;0.30;;;;;;;;;;5021103;28;20611;-77
2024/03/24 04:06:03;;;;;;;0.30;0.30;;;;;;;;;;5018940;28;20224;-76
2024/03/24 04:08:29;;;;;;;0.30;0.30;;;;;;;;;;5021199;28;20716;-76
2024/03/24 04:10:55;;;;;;;0.30;0.30;;;;;;;;;;5022090;28;20228;-75
2024/03/24 04:13:20;;;;;;;0.30;0.30;;;;;;;;;;5029616;28;20223;-74
2024/03/24 04:15:46;;;;;;;2.73;1.23;;;;;;;;;;5030165;28;20227;-75
2024/03/24 04:18:11;;;;;;;0.30;0.30;;;;;;;;;;5013780;28;20224;-75
2024/03/24 04:20:37;;;;;;;0.40;0.40;;;;;;;;;;5027318;28;20704;-74
2024/03/24 04:23:06;;;;;;;0.30;0.30;;;;;;;;;;5015010;28;20654;-75
2024/03/24 04:25:33;;;;;;;0.20;0.20;;;;;;;;;;5025341;28;20223;-75
2024/03/24 04:27:59;;;;;;;0.30;0.30;;;;;;;;;;5028935;28;20346;-75
2024/03/24 04:30:26;;;;;;;0.30;0.30;;;;;;;;;;5029876;28;20266;-75
2024/03/24 04:32:51;;;;;;;0.23;0.23;;;;;;;;;;5004532;28;20221;-75
2024/03/24 04:35:16;;;;;;;0.30;0.30;;;;;;;;;;5005515;28;20288;-75
2024/03/24 04:37:43;;;;;;;0.30;0.30;;;;;;;;;;5025750;28;20224;-75
2024/03/24 04:40:09;;;;;;;0.30;0.30;;;;;;;;;;5028425;28;20882;-75
2024/03/24 04:42:35;;;;;;;0.27;0.27;;;;;;;;;;5012982;28;20224;-74
2024/03/24 04:45:01;;;;;;;0.27;0.27;;;;;;;;;;5028395;28;20212;-75
2024/03/24 04:47:30;;;;;;;0.30;0.30;;;;;;;;;;5029500;28;20369;-75
2024/03/24 04:49:56;;;;;;;0.30;0.30;;;;;;;;;;5029902;28;20231;-75
2024/03/24 04:52:23;;;;;;;0.30;0.30;;;;;;;;;;5024534;28;20220;-76
2024/03/24 04:54:48;;;;;;;0.30;0.30;;;;;;;;;;5008750;28;20229;-75
2024/03/24 04:57:14;;;;;;;0.23;0.23;;;;;;;;;;5010824;28;20775;-75
2024/03/24 04:59:40;;;;;;;0.20;0.20;;;;;;;;;;5028677;28;20217;-75
2024/03/24 05:02:05;;;;;;;0.30;0.30;;;;;;;;;;5010574;28;20296;-75
2024/03/24 05:04:31;;;;;;;0.30;0.30;;;;;;;;;;5014807;28;20213;-75
2024/03/24 05:06:59;;;;;;;0.30;0.30;;;;;;;;;;5006680;28;20259;-75
2024/03/24 05:09:25;;;;;;;0.30;0.30;;;;;;;;;;4993625;28;20562;-75
2024/03/24 05:11:51;;;;;;;0.30;0.30;;;;;;;;;;5009766;28;20648;-75
2024/03/24 05:14:17;;;;;;;0.30;0.30;;;;;;;;;;5010520;28;20216;-75
2024/03/24 05:16:42;;;;;;;0.20;0.20;;;;;;;;;;4993459;28;20220;-75
2024/03/24 05:19:07;;;;;;;0.30;0.30;;;;;;;;;;4991855;28;20225;-76
2024/03/24 05:21:34;;;;;;;0.30;0.30;;;;;;;;;;5003951;28;20228;-77
2024/03/24 05:23:59;;;;;;;0.20;0.20;;;;;;;;;;5028591;28;20224;-76
2024/03/24 05:26:25;;;;;;;0.30;0.30;;;;;;;;;;5029796;28;20643;-76
2024/03/24 05:28:50;;;;;;;0.30;0.30;;;;;;;;;;5028718;28;20307;-76
2024/03/24 05:31:16;;;;;;;0.30;0.30;;;;;;;;;;5029060;28;20232;-75
2024/03/24 05:33:42;;;;;;;0.20;0.20;;;;;;;;;;5027287;28;20216;-76
2024/03/24 05:36:08;;;;;;;0.30;0.30;;;;;;;;;;5028850;28;20236;-76
2024/03/24 05:38:34;;;;;;;0.30;0.30;;;;;;;;;;5028410;28;20228;-75
2024/03/24 05:41:01;;;;;;;0.20;0.20;;;;;;;;;;5028468;28;20232;-75
2024/03/24 05:43:27;;;;;;;0.37;0.37;;;;;;;;;;5012425;28;20608;-76
2024/03/24 05:45:54;;;;;;;1.43;1.37;;;;;;;;;;5009988;28;20228;-76
2024/03/24 05:48:21;;;;;;;0.30;0.30;;;;;;;;;;5027050;28;20265;-77
2024/03/24 05:50:56;;;;;;;0.30;0.30;;;;;;;;;;5027406;28;20230;-76
2024/03/24 05:53:21;;;;;;;0.30;0.30;;;;;;;;;;5009366;28;20223;-76
2024/03/24 05:55:47;;;;;;;0.30;0.30;;;;;;;;;;5011395;28;20677;-75
2024/03/24 05:58:12;;;;;;;0.30;0.30;;;;;;;;;;5011598;28;20326;-76
2024/03/24 06:00:38;;;;;;;0.30;0.30;;;;;;;;;;5026605;28;20281;-75
2024/03/24 06:03:04;;;;;;;0.30;0.30;;;;;;;;;;5029174;28;20270;-77
2024/03/24 06:05:31;;;;;;;0.30;0.30;;;;;;;;;;5013380;28;20774;-75
2024/03/24 06:07:56;;;;;;;0.30;0.30;;;;;;;;;;5027762;28;20239;-75
2024/03/24 06:10:22;;;;;;;4.27;0.80;;;;;;;;;;5028270;28;20227;-77
2024/03/24 06:12:48;;;;;;;0.30;0.30;;;;;;;;;;5029689;28;20224;-74
2024/03/24 06:15:13;;;;;;;0.30;0.30;;;;;;;;;;5028687;28;20220;-75
2024/03/24 06:17:39;;;;;;;0.30;0.30;;;;;;;;;;5025932;28;20599;-76
2024/03/24 06:20:06;;;;;;;0.20;0.20;;;;;;;;;;5029460;28;20240;-76
2024/03/24 06:22:32;;;;;;;0.30;0.30;;;;;;;;;;5029528;28;20224;-75
2024/03/24 06:24:58;;;;;;;0.30;0.30;;;;;;;;;;5028690;28;20227;-77
2024/03/24 06:27:23;;;;;;;0.30;0.30;;;;;;;;;;5027509;28;20220;-76
2024/03/24 06:29:49;;;;;;;0.30;0.30;;;;;;;;;;5030280;28;20745;-75
2024/03/24 06:32:15;;;;;;;0.30;0.30;;;;;;;;;;5011844;28;20220;-76
2024/03/24 06:34:40;;;;;;;0.30;0.30;;;;;;;;;;5026475;28;20247;-77
2024/03/24 06:37:06;;;;;;;0.20;0.20;;;;;;;;;;4999106;28;20228;-76
2024/03/24 06:39:32;;;;;;;0.30;0.30;;;;;;;;;;5006080;28;20254;-76
2024/03/24 06:42:03;;;;;;;0.20;0.20;;;;;;;;;;5011988;28;20642;-77
2024/03/24 06:44:35;;;;;;;0.30;0.30;;;;;;;;;;5032765;28;20216;-76
2024/03/24 06:47:02;;;;;;;0.87;0.87;;;;;;;;;;5024177;28;20581;-75
2024/03/24 06:49:27;;;;;;;0.20;0.20;;;;;;;;;;5028218;28;20235;-75
2024/03/24 06:51:53;;;;;;;0.30;0.30;;;;;;;;;;5010641;28;20294;-76
2024/03/24 06:54:19;;;;;;;0.30;0.30;;;;;;;;;;5014036;28;20223;-75
2024/03/24 06:56:45;;;;;;;0.43;0.43;;;;;;;;;;5030233;28;20228;-75
2024/03/24 06:59:11;;;;;;;0.30;0.30;;;;;;;;;;5027906;28;20713;-75
2024/03/24 07:01:37;;;;;;;0.30;0.30;;;;;;;;;;5035548;28;20652;-75
2024/03/24 07:04:03;;;;;;;0.30;0.30;;;;;;;;;;5028244;28;20247;-75
2024/03/24 07:06:30;;;;;;;0.30;0.30;;;;;;;;;;5027426;28;20231;-76
2024/03/24 07:08:56;;;;;;;0.30;0.30;;;;;;;;;;5011001;28;20651;-75
2024/03/24 07:11:22;;;;;;;0.30;0.30;;;;;;;;;;5011759;28;20329;-76
2024/03/24 07:13:47;;;;;;;0.30;0.30;;;;;;;;;;5020000;28;20228;-76
2024/03/24 07:16:12;;;;;;;0.30;0.30;;;;;;;;;;5032569;28;20231;-75
2024/03/24 07:18:38;;;;;;;0.30;0.30;;;;;;;;;;5026411;28;20254;-76
2024/03/24 07:21:05;;;;;;;0.30;0.30;;;;;;;;;;5018521;28;20254;-75
2024/03/24 07:23:31;;;;;;;0.30;0.30;;;;;;;;;;5032015;28;20229;-75
2024/03/24 07:25:57;;;;;;;0.30;0.30;;;;;;;;;;5030887;28;20633;-75
2024/03/24 07:28:22;;;;;;;0.30;0.30;;;;;;;;;;5017385;28;20815;-75
2024/03/24 07:30:48;;;;;;;0.30;0.30;;;;;;;;;;5035178;28;20243;-75
2024/03/24 07:33:16;;;;;;;0.30;0.30;;;;;;;;;;5030832;28;20285;-75
2024/03/24 07:35:43;;;;;;;0.30;0.30;;;;;;;;;;5029992;28;20223;-76
2024/03/24 07:38:10;;;;;;;0.30;0.30;;;;;;;;;;5014188;28;20282;-76
2024/03/24 07:40:35;;;;;;;0.20;0.20;;;;;;;;;;5025934;28;20228;-75
2024/03/24 07:43:01;;;;;;;0.40;0.40;;;;;;;;;;5033856;28;20252;-76
2024/03/24 07:45:26;;;;;;;0.30;0.30;;;;;;;;;;5023440;28;20224;-75
2024/03/24 07:47:52;;;;;;;0.30;0.30;;;;;;;;;;5032681;28;20311;-75
2024/03/24 07:50:18;;;;;;;0.30;0.30;;;;;;;;;;5016385;28;20239;-77
2024/03/24 07:52:43;;;;;;;0.30;0.30;;;;;;;;;;5030600;28;20223;-76
2024/03/24 07:55:09;;;;;;;0.20;0.20;;;;;;;;;;5030780;28;20239;-75
2024/03/24 07:57:37;;;;;;;0.30;0.30;;;;;;;;;;5031462;28;20226;-76
2024/03/24 08:00:03;;;;;;;0.20;0.20;;;;;;;;;;5015122;28;20227;-76
2024/03/24 08:02:29;;;;;;;0.20;0.20;;;;;;;;;;5023735;28;20220;-76
2024/03/24 08:04:55;;;;;;;0.60;0.60;;;;;;;;;;5029627;28;20220;-75
2024/03/24 08:07:21;;;;;;;0.30;0.30;;;;;;;;;;5016030;28;20212;-77
2024/03/24 08:09:46;;;;;;;0.30;0.30;;;;;;;;;;5025908;28;20228;-76
2024/03/24 08:12:12;;;;;;;0.30;0.30;;;;;;;;;;5028385;28;20258;-76
2024/03/24 08:14:41;;;;;;;0.20;0.20;;;;;;;;;;5027265;28;20231;-76
2024/03/24 08:17:06;;;;;;;0.30;0.30;;;;;;;;;;5012249;28;20220;-76
2024/03/24 08:19:32;;;;;;;0.30;0.30;;;;;;;;;;4998030;28;20227;-76
2024/03/24 08:21:58;;;;;;;0.27;0.27;;;;;;;;;;5045215;28;20242;-77
2024/03/24 08:24:23;;;;;;;0.30;0.30;;;;;;;;;;5031569;28;20986;-77
2024/03/24 08:26:50;;;;;;;0.30;0.30;;;;;;;;;;5031360;28;20239;-76
2024/03/24 08:29:16;;;;;;;0.40;0.40;;;;;;;;;;5038437;28;20224;-76
2024/03/24 08:31:42;;;;;;;0.30;0.30;;;;;;;;;;5023375;28;20228;-75
2024/03/24 08:34:08;;;;;;;0.30;0.30;;;;;;;;;;5027978;28;20231;-76
2024/03/24 08:36:33;;;;;;;0.30;0.30;;;;;;;;;;5023052;28;20319;-75
2024/03/24 08:38:59;;;;;;;0.30;0.30;;;;;;;;;;5014341;28;20220;-75
2024/03/24 08:41:24;;;;;;;0.30;0.30;;;;;;;;;;5031200;28;20636;-75
2024/03/24 08:43:55;;;;;;;0.30;0.30;;;;;;;;;;5015277;28;20310;-75
2024/03/24 08:46:21;;;;;;;0.20;0.20;;;;;;;;;;5023881;28;20225;-75
2024/03/24 08:48:48;;;;;;;0.30;0.30;;;;;;;;;;5014618;28;20221;-76
2024/03/24 08:51:14;;;;;;;0.30;0.30;;;;;;;;;;5015203;28;20232;-75
2024/03/24 08:53:40;;;;;;;0.30;0.30;;;;;;;;;;4992723;28;20247;-75
2024/03/24 08:56:07;;;;;;;0.20;0.20;;;;;;;;;;5009239;28;20239;-77
2024/03/24 08:58:32;;;;;;;0.40;0.40;;;;;;;;;;5006274;28;20220;-76
2024/03/24 09:00:58;;;;;;;0.30;0.30;;;;;;;;;;5012327;28;20252;-75
2024/03/24 09:03:24;;;;;;;0.30;0.30;;;;;;;;;;5015337;28;20279;-76
2024/03/24 09:05:50;;;;;;;0.30;0.30;;;;;;;;;;5018713;28;20248;-76
2024/03/24 09:08:17;;;;;;;0.30;0.30;;;;;;;;;;5019221;28;20221;-76
2024/03/24 09:10:42;;;;;;;0.30;0.30;;;;;;;;;;5016747;28;20315;-76
2024/03/24 09:13:36;;;;;;;0.33;0.33;;;;;;;;;;5010656;28;20224;-75
2024/03/24 09:16:03;;;;;;;0.30;0.30;;;;;;;;;;4989724;28;20221;-75
2024/03/24 09:18:28;;;;;;;0.30;0.30;;;;;;;;;;5003543;28;20233;-75
2024/03/24 09:20:56;;;;;;;0.30;0.30;;;;;;;;;;5006305;28;20278;-76
2024/03/24 09:23:24;;;;;;;0.30;0.30;;;;;;;;;;4992754;28;20220;-75
2024/03/24 09:25:50;;;;;;;0.30;0.30;;;;;;;;;;5001826;28;20225;-76
2024/03/24 09:28:15;;;;;;;0.30;0.30;;;;;;;;;;5004720;28;20710;-75
2024/03/24 09:30:41;;;;;;;0.30;0.30;;;;;;;;;;4990344;28;20229;-75
2024/03/24 09:33:07;;;;;;;0.30;0.30;;;;;;;;;;5008487;28;20235;-75
2024/03/24 09:35:32;;;;;;;0.30;0.30;;;;;;;;;;5005731;28;20229;-75
2024/03/24 09:37:58;;;;;;;0.30;0.30;;;;;;;;;;5005249;28;20805;-75
2024/03/24 09:40:25;;;;;;;0.30;0.30;;;;;;;;;;5019551;28;20288;-75
2024/03/24 09:42:54;;;;;;;0.30;0.30;;;;;;;;;;5019664;28;20596;-75
2024/03/24 09:45:21;;;;;;;0.23;0.23;;;;;;;;;;5005622;28;20216;-76
2024/03/24 09:47:48;;;;;;;0.30;0.30;;;;;;;;;;5008308;28;20235;-75
2024/03/24 09:50:14;;;;;;;0.20;0.20;;;;;;;;;;4989455;28;20615;-75
2024/03/24 09:52:41;;;;;;;0.30;0.30;;;;;;;;;;5006917;28;20341;-75
2024/03/24 09:55:07;;;;;;;0.30;0.30;;;;;;;;;;5005678;28;20225;-76
2024/03/24 09:57:37;;;;;;;0.30;0.30;;;;;;;;;;4997852;28;20213;-75
2024/03/24 10:00:06;;;;;;;0.30;0.30;;;;;;;;;;4988903;28;20706;-75
2024/03/24 10:02:31;;;;;;;0.30;0.30;;;;;;;;;;5008614;28;20236;-76
2024/03/24 10:04:59;;;;;;;0.30;0.30;;;;;;;;;;5024428;28;20240;-75
2024/03/24 10:07:24;;;;;;;0.30;0.30;;;;;;;;;;5006374;28;20599;-75
2024/03/24 10:09:50;;;;;;;0.30;0.30;;;;;;;;;;5007990;28;20600;-74
2024/03/24 10:12:15;;;;;;;0.30;0.30;;;;;;;;;;5044482;28;20224;-75
2024/03/24 10:14:41;;;;;;;0.30;0.30;;;;;;;;;;5010873;28;20231;-76
2024/03/24 10:17:14;;;;;;;0.20;0.20;;;;;;;;;;5028169;28;20227;-74
2024/03/24 10:19:43;;;;;;;0.30;0.30;;;;;;;;;;5010484;28;20220;-75
2024/03/24 10:22:09;;;;;;;0.27;0.27;;;;;;;;;;5027467;28;20232;-75
2024/03/24 10:24:35;;;;;;;0.30;0.30;;;;;;;;;;5028377;28;20235;-75
2024/03/24 10:27:00;;;;;;;0.30;0.30;;;;;;;;;;5012143;28;20705;-75
2024/03/24 10:29:26;;;;;;;0.30;0.30;;;;;;;;;;5036013;22;20223;-74
2024/03/24 10:31:52;;;;;;;0.30;0.30;;;;;;;;;;5035579;28;20293;-73
2024/03/24 10:34:18;;;;;;;0.30;0.30;;;;;;;;;;5036787;28;20719;-72
2024/03/24 10:36:43;;;;;;;0.30;0.30;;;;;;;;;;5036905;28;20705;-73
2024/03/24 10:39:09;;;;;;;0.30;0.30;;;;;;;;;;5053650;28;20667;-73
2024/03/24 10:41:35;;;;;;;0.30;0.30;;;;;;;;;;5053755;28;20211;-72
2024/03/24 10:44:05;;;;;;;0.30;0.30;;;;;;;;;;5051290;28;20245;-72
2024/03/24 10:46:32;;;;;;;0.30;0.30;;;;;;;;;;5038542;28;20230;-72
2024/03/24 10:49:01;;;;;;;0.30;0.30;;;;;;;;;;5065048;28;20227;-73
2024/03/24 10:51:30;;;;;;;0.30;0.30;;;;;;;;;;5063734;28;20704;-72
2024/03/24 10:54:02;;;;;;;0.30;0.30;;;;;;;;;;5047854;28;20219;-72
2024/03/24 10:56:30;;;;;;;0.30;0.30;;;;;;;;;;5045613;28;20259;-72
2024/03/24 10:58:57;;;;;;;0.30;0.30;;;;;;;;;;5051085;28;20231;-72
2024/03/24 11:01:24;;;;;;;0.30;0.30;;;;;;;;;;5064274;28;20231;-73
2024/03/24 11:03:52;;;;;;;0.30;0.30;;;;;;;;;;5051637;28;20218;-73
2024/03/24 11:06:18;;;;;;;0.30;0.30;;;;;;;;;;5057902;28;20753;-73
2024/03/24 11:08:45;;;;;;;0.30;0.30;;;;;;;;;;5052589;28;21791;-73
2024/03/24 11:11:11;;;;;;;0.30;0.30;;;;;;;;;;5062188;28;20222;-73
2024/03/24 11:13:38;;;;;;;0.30;0.30;;;;;;;;;;5056640;28;20235;-74
2024/03/24 11:16:04;;;;;;;0.30;0.30;;;;;;;;;;5039272;28;20219;-73
2024/03/24 11:18:30;;;;;;;0.30;0.30;;;;;;;;;;5058197;28;20262;-73
2024/03/24 11:20:57;;;;;;;0.30;0.30;;;;;;;;;;5058892;28;20607;-73
2024/03/24 11:23:32;;;;;;;0.30;0.30;;;;;;;;;;5058056;28;20231;-73
2024/03/24 11:26:02;;;;;;;0.30;0.30;;;;;;;;;;5038156;28;20217;-73
2024/03/24 11:28:45;;;;;;;0.30;0.30;;;;;;;;;;5064034;28;20218;-73
2024/03/24 11:31:20;;;;;;;0.30;0.30;;;;;;;;;;5049411;28;20229;-74
2024/03/24 11:34:11;;;;;;;0.30;0.30;;;;;;;;;;5065148;28;20219;-74
2024/03/24 11:36:40;;;;;;;0.30;0.30;;;;;;;;;;5050565;28;20219;-72
2024/03/24 11:39:11;;;;;;;0.30;0.30;;;;;;;;;;5044602;28;20222;-73
2024/03/24 11:41:51;;;;;;;0.30;0.30;;;;;;;;;;5061152;28;20589;-73
2024/03/24 11:44:16;;;;;;;0.30;0.30;;;;;;;;;;5063817;28;20222;-73
2024/03/24 11:46:42;;;;;;;0.30;0.30;;;;;;;;;;5059312;28;20338;-73
2024/03/24 11:49:11;;;;;;;0.30;0.30;;;;;;;;;;5050140;28;20252;-74
2024/03/24 11:51:37;;;;;;;0.20;0.20;;;;;;;;;;5061896;28;20594;-73
2024/03/24 11:54:04;;;;;;;0.30;0.30;;;;;;;;;;5056726;28;20253;-74
2024/03/24 11:56:30;;;;;;;0.20;0.20;;;;;;;;;;5054330;28;20470;-73
2024/03/24 11:58:56;;;;;;;0.37;0.37;;;;;;;;;;5056079;28;20718;-74
2024/03/24 12:01:22;;;;;;;0.30;0.30;;;;;;;;;;5062780;28;20254;-73
2024/03/24 12:03:49;;;;;;;0.30;0.30;;;;;;;;;;5064122;28;20241;-74
2024/03/24 12:06:17;;;;;;;0.30;0.30;;;;;;;;;;5057991;28;20223;-73
2024/03/24 12:08:45;;;;;;;0.30;0.30;;;;;;;;;;5046032;28;20742;-74
2024/03/24 12:11:11;;;;;;;2.77;1.33;;;;;;;;;;5057411;28;20641;-74
2024/03/24 12:13:38;;;;;;;0.30;0.30;;;;;;;;;;5056130;28;20701;-73
2024/03/24 12:16:04;;;;;;;0.30;0.30;;;;;;;;;;5039688;28;20230;-73
2024/03/24 12:18:30;;;;;;;0.50;0.50;;;;;;;;;;5042750;28;20233;-73
2024/03/24 12:20:55;;;;;;;0.27;0.27;;;;;;;;;;5064011;28;20227;-73
2024/03/24 12:23:25;;;;;;;0.30;0.30;;;;;;;;;;5056167;28;20665;-74
2024/03/24 12:25:53;;;;;;;0.30;0.30;;;;;;;;;;5065470;28;20220;-73
2024/03/24 12:28:20;;;;;;;0.30;0.30;;;;;;;;;;5049223;28;20230;-73
2024/03/24 12:30:56;;;;;;;0.30;0.30;;;;;;;;;;5044688;28;20242;-73
2024/03/24 12:33:23;;;;;;;0.30;0.30;;;;;;;;;;5039620;28;20218;-73
2024/03/24 12:35:49;;;;;;;0.20;0.20;;;;;;;;;;5057755;28;20235;-74
2024/03/24 12:38:18;;;;;;;0.20;0.20;;;;;;;;;;5049169;28;20226;-74
2024/03/24 12:40:51;;;;;;;0.30;0.30;;;;;;;;;;5059258;28;20232;-73
2024/03/24 12:43:17;;;;;;;1.17;1.07;;;;;;;;;;5060073;28;20231;-74
2024/03/24 12:45:54;;;;;;;0.30;0.30;;;;;;;;;;5040668;28;20222;-74
2024/03/24 12:48:22;;;;;;;0.30;0.30;;;;;;;;;;5055408;28;20644;-74
2024/03/24 12:50:48;;;;;;;0.43;0.43;;;;;;;;;;5057934;28;20297;-74
2024/03/24 12:53:42;;;;;;;0.30;0.30;;;;;;;;;;5057517;28;20727;-74
2024/03/24 12:56:30;;;;;;;0.30;0.30;;;;;;;;;;5059351;28;20292;-74
2024/03/24 12:58:55;;;;;;;0.30;0.30;;;;;;;;;;5042394;28;20691;-74
2024/03/24 13:01:22;;;;;;;0.30;0.30;;;;;;;;;;5055831;28;20306;-74
2024/03/24 13:03:47;;;;;;;0.30;0.30;;;;;;;;;;5048275;28;20226;-74
2024/03/24 13:06:15;;;;;;;0.30;0.30;;;;;;;;;;5041197;28;20300;-75
2024/03/24 13:08:46;;;;;;;0.30;0.30;;;;;;;;;;5064632;28;20218;-74
2024/03/24 13:11:12;;;;;;;0.40;0.40;;;;;;;;;;5059107;28;20737;-74
2024/03/24 13:13:40;;;;;;;0.30;0.30;;;;;;;;;;5054217;28;20227;-74
2024/03/24 13:16:16;;;;;;;0.30;0.30;;;;;;;;;;5055398;28;20293;-73
2024/03/24 13:18:57;;;;;;;0.30;0.30;;;;;;;;;;5065716;28;20218;-72
2024/03/24 13:21:34;;;;;;;0.40;0.40;;;;;;;;;;5059485;28;20222;-73
2024/03/24 13:24:04;;;;;;;0.30;0.30;;;;;;;;;;5060729;28;20226;-73
2024/03/24 13:26:34;;;;;;;0.53;0.53;;;;;;;;;;5047658;28;20293;-75
2024/03/24 13:29:00;;;;;;;0.40;0.40;;;;;;;;;;5045680;28;20597;-74
2024/03/24 13:31:25;;;;;;;0.30;0.30;;;;;;;;;;5052288;28;20235;-74
2024/03/24 13:33:59;;;;;;;0.60;0.60;;;;;;;;;;5045611;28;20227;-74
2024/03/24 13:36:44;;;;;;;0.30;0.30;;;;;;;;;;5055564;28;20595;-74
2024/03/24 13:39:19;;;;;;;0.30;0.30;;;;;;;;;;5045720;28;20226;-74
2024/03/24 13:41:58;;;;;;;0.30;0.30;;;;;;;;;;5048180;28;20277;-74
2024/03/24 13:45:01;;;;;;;0.30;0.30;;;;;;;;;;5061098;28;20223;-74
2024/03/24 13:47:31;;;;;;;0.30;0.30;;;;;;;;;;5063555;28;20215;-74
2024/03/24 13:50:00;;;;;;;0.30;0.30;;;;;;;;;;5046741;28;20238;-74
2024/03/24 13:52:27;;;;;;;0.20;0.20;;;;;;;;;;5041645;28;20945;-74
2024/03/24 13:54:53;;;;;;;0.30;0.30;;;;;;;;;;5037444;28;20233;-75
2024/03/24 13:57:18;;;;;;;1.37;1.27;;;;;;;;;;5058536;28;20601;-74
2024/03/24 13:59:44;;;;;;;0.30;0.30;;;;;;;;;;5058802;28;20226;-74
2024/03/24 14:02:12;;;;;;;1.77;1.03;;;;;;;;;;5042536;28;20291;-75
2024/03/24 14:04:39;;;;;;;0.30;0.30;;;;;;;;;;5058033;28;20226;-74
2024/03/24 14:07:04;;;;;;;0.30;0.30;;;;;;;;;;5055579;28;20700;-75
2024/03/24 14:09:30;;;;;;;0.30;0.30;;;;;;;;;;5041554;28;20297;-74
2024/03/24 14:11:57;;;;;;;0.30;0.30;;;;;;;;;;5041230;28;20227;-74
2024/03/24 14:14:42;;;;;;;0.30;0.30;;;;;;;;;;5042516;28;20237;-74
2024/03/24 14:17:34;;;;;;;0.30;0.30;;;;;;;;;;5064710;28;20700;-75
2024/03/24 14:20:01;;;;;;;0.30;0.30;;;;;;;;;;5064571;28;20214;-74
2024/03/24 14:22:39;;;;;;;0.30;0.30;;;;;;;;;;5058731;28;20219;-74
2024/03/24 14:25:20;;;;;;;0.60;0.60;;;;;;;;;;5079272;28;20601;-74
2024/03/24 14:27:46;;;;;;;2.30;0.63;;;;;;;;;;5045599;28;20233;-75
2024/03/24 14:30:11;;;;;;;0.30;0.30;;;;;;;;;;5061165;28;20242;-74
2024/03/24 14:32:37;;;;;;;0.30;0.30;;;;;;;;;;5040598;28;20219;-75
2024/03/24 14:35:03;;;;;;;0.30;0.30;;;;;;;;;;5059278;28;20225;-75
2024/03/24 14:37:47;;;;;;;0.30;0.30;;;;;;;;;;5044269;28;20238;-75
2024/03/24 14:40:35;;;;;;;0.53;0.53;;;;;;;;;;5061032;28;20227;-73
2024/03/24 14:43:20;;;;;;;0.40;0.40;;;;;;;;;;5049117;28;20223;-75